Time;durP1;ratioP1;P1;durP2;ratioP2;P2;SDS_P1;SDS_P2;PMS_P1;PMS_P2;Temp;Humidity;BMP_temperature;BMP_pressure;BME280_temperature;BME280_humidity;BME280_pressure;Samples;Min_cycle;Max_cycle;Signal;HPM_P1;HPM_P2
2023/03/27 00:00:29;;;;;;;4.07;0.47;;;6.00;99.90;;;;;;5013391;28;20300;-50
2023/03/27 00:02:59;;;;;;;0.13;0.13;;;6.00;99.90;;;;;;5011913;28;20218;-51
2023/03/27 00:05:28;;;;;;;0.47;0.13;;;6.00;99.90;;;;;;5012834;28;20211;-50
2023/03/27 00:07:55;;;;;;;0.17;0.13;;;5.90;99.90;;;;;;5013667;28;20203;-51
2023/03/27 00:10:23;;;;;;;1.80;0.10;;;5.90;99.90;;;;;;5012228;28;20204;-51
2023/03/27 00:12:50;;;;;;;0.20;0.20;;;5.90;99.90;;;;;;5012475;28;20218;-50
2023/03/27 00:15:18;;;;;;;1.40;0.10;;;5.90;99.90;;;;;;5013063;28;20626;-50
2023/03/27 00:17:46;;;;;;;0.37;0.10;;;5.90;99.90;;;;;;5013027;28;20624;-50
2023/03/27 00:20:14;;;;;;;0.20;0.20;;;5.80;99.90;;;;;;5012099;28;20202;-51
2023/03/27 00:22:43;;;;;;;0.10;0.10;;;5.80;99.90;;;;;;5013414;28;20254;-51
2023/03/27 00:25:11;;;;;;;0.30;0.30;;;5.80;99.90;;;;;;5011651;28;20204;-50
2023/03/27 00:27:38;;;;;;;2.57;0.10;;;5.80;99.90;;;;;;5011667;28;20668;-51
2023/03/27 00:30:06;;;;;;;0.20;0.10;;;5.90;99.90;;;;;;5012636;28;20548;-50
2023/03/27 00:32:35;;;;;;;0.10;0.10;;;5.90;99.90;;;;;;5011998;28;20228;-50
2023/03/27 00:35:02;;;;;;;0.40;0.13;;;5.80;99.90;;;;;;5013248;28;20199;-51
2023/03/27 00:37:30;;;;;;;0.53;0.23;;;5.80;99.90;;;;;;5013352;28;20647;-51
2023/03/27 00:39:59;;;;;;;0.63;0.10;;;5.80;99.90;;;;;;5009559;28;20259;-51
2023/03/27 00:42:26;;;;;;;0.07;0.07;;;5.80;99.90;;;;;;5012933;28;20638;-51
2023/03/27 00:44:53;;;;;;;0.30;0.10;;;5.80;99.90;;;;;;5012361;28;20230;-50
2023/03/27 00:47:27;;;;;;;0.20;0.20;;;5.80;99.90;;;;;;5012820;28;20197;-50
2023/03/27 00:49:55;;;;;;;0.10;0.10;;;5.80;99.90;;;;;;5012438;28;20245;-50
2023/03/27 00:52:30;;;;;;;0.20;0.20;;;5.80;99.90;;;;;;5010687;28;20224;-49
2023/03/27 00:55:02;;;;;;;0.10;0.10;;;5.80;99.90;;;;;;5011572;28;20740;-50
2023/03/27 00:57:30;;;;;;;1.93;0.00;;;5.70;99.90;;;;;;5012924;28;20614;-50
2023/03/27 00:59:59;;;;;;;0.10;0.10;;;5.60;99.90;;;;;;5011612;28;20661;-50
2023/03/27 01:02:27;;;;;;;1.23;0.10;;;5.70;99.90;;;;;;5012615;28;20661;-51
2023/03/27 01:04:55;;;;;;;0.20;0.13;;;5.70;99.90;;;;;;5011667;28;20221;-51
2023/03/27 01:07:23;;;;;;;0.10;0.10;;;5.70;99.90;;;;;;5010124;28;20746;-51
2023/03/27 01:09:51;;;;;;;0.87;0.20;;;5.60;99.90;;;;;;5010810;28;20251;-51
2023/03/27 01:12:36;;;;;;;1.53;0.17;;;5.60;99.90;;;;;;5012256;28;20217;-51
2023/03/27 01:15:25;;;;;;;0.10;0.00;;;5.50;99.90;;;;;;5005385;28;20202;-50
2023/03/27 01:18:10;;;;;;;0.00;0.00;;;5.60;99.90;;;;;;5010783;28;20206;-50
2023/03/27 01:20:58;;;;;;;0.00;0.00;;;5.50;99.90;;;;;;5011887;28;20200;-51
2023/03/27 01:24:03;;;;;;;0.77;0.10;;;5.60;99.90;;;;;;5012333;28;20217;-51
2023/03/27 01:27:03;;;;;;;0.00;0.00;;;5.50;99.90;;;;;;4994209;28;20204;-51
2023/03/27 01:29:41;;;;;;;0.33;0.33;;;5.60;99.90;;;;;;5009312;28;20214;-50
2023/03/27 01:32:44;;;;;;;0.20;0.20;;;5.50;99.90;;;;;;5011537;28;20291;-50
2023/03/27 01:35:52;;;;;;;0.10;0.10;;;5.50;99.90;;;;;;5012492;28;20280;-51
2023/03/27 01:38:51;;;;;;;0.97;0.10;;;5.60;99.90;;;;;;5010291;28;20247;-51
2023/03/27 01:41:26;;;;;;;1.90;0.20;;;5.50;99.90;;;;;;5004414;28;20204;-51
2023/03/27 01:43:58;;;;;;;1.13;0.10;;;5.50;99.90;;;;;;5009090;28;20221;-50
2023/03/27 01:46:30;;;;;;;0.60;0.10;;;5.50;99.90;;;;;;5012005;28;20204;-51
2023/03/27 01:49:00;;;;;;;0.87;0.20;;;5.50;99.90;;;;;;5012365;28;20220;-50
2023/03/27 01:51:34;;;;;;;0.10;0.10;;;5.50;99.90;;;;;;5011523;28;20675;-50
2023/03/27 01:54:04;;;;;;;3.23;0.47;;;5.50;99.90;;;;;;5007797;28;20737;-50
2023/03/27 01:56:38;;;;;;;0.47;0.20;;;5.50;99.90;;;;;;5008650;28;20206;-50
2023/03/27 01:59:10;;;;;;;0.20;0.10;;;5.50;99.90;;;;;;5011956;28;20257;-50
2023/03/27 02:01:41;;;;;;;0.10;0.10;;;5.60;99.90;;;;;;5010307;28;20200;-51
2023/03/27 02:04:12;;;;;;;1.33;0.17;;;5.60;99.90;;;;;;5011283;28;20224;-50
2023/03/27 02:06:43;;;;;;;0.40;0.40;;;5.60;99.90;;;;;;5010910;28;20621;-51
2023/03/27 02:09:15;;;;;;;1.13;0.20;;;5.60;99.90;;;;;;5008639;28;20300;-50
2023/03/27 02:11:49;;;;;;;0.60;0.13;;;5.60;99.90;;;;;;5010952;28;20233;-50
2023/03/27 02:14:21;;;;;;;2.03;0.10;;;5.50;99.90;;;;;;5011886;28;20228;-50
2023/03/27 02:16:52;;;;;;;0.23;0.20;;;5.60;99.90;;;;;;5011789;28;20209;-50
2023/03/27 02:19:23;;;;;;;0.50;0.30;;;5.50;99.90;;;;;;5010376;28;20630;-50
2023/03/27 02:21:50;;;;;;;0.20;0.20;;;5.50;99.90;;;;;;5005829;28;20268;-50
2023/03/27 02:24:18;;;;;;;0.50;0.30;;;5.50;99.90;;;;;;5009606;28;20311;-50
2023/03/27 02:26:49;;;;;;;0.23;0.23;;;5.50;99.90;;;;;;5011830;28;20639;-51
2023/03/27 02:29:37;;;;;;;0.67;0.10;;;5.50;99.90;;;;;;5011418;28;20356;-51
2023/03/27 02:32:16;;;;;;;0.20;0.20;;;5.50;99.90;;;;;;5010830;28;20291;-50
2023/03/27 02:34:57;;;;;;;0.77;0.20;;;5.50;99.90;;;;;;5010238;28;20226;-50
2023/03/27 02:37:32;;;;;;;0.20;0.20;;;5.50;99.90;;;;;;5009114;28;20730;-50
2023/03/27 02:40:12;;;;;;;0.17;0.13;;;5.40;99.90;;;;;;5010853;28;20205;-50
2023/03/27 02:42:54;;;;;;;0.83;0.10;;;5.40;99.90;;;;;;5011372;28;20255;-51
2023/03/27 02:45:30;;;;;;;0.10;0.10;;;5.40;99.90;;;;;;5009587;28;20212;-50
2023/03/27 02:48:02;;;;;;;1.03;0.10;;;5.40;99.90;;;;;;5011571;28;20199;-50
2023/03/27 02:50:34;;;;;;;0.47;0.10;;;5.40;99.90;;;;;;5009235;28;20202;-50
2023/03/27 02:53:04;;;;;;;0.20;0.20;;;5.60;99.90;;;;;;5029269;23;20333;-48
2023/03/27 02:55:36;;;;;;;0.10;0.10;;;5.70;99.90;;;;;;4992169;28;20332;-51
2023/03/27 02:58:08;;;;;;;0.97;0.00;;;5.80;99.90;;;;;;4979481;28;20203;-51
2023/03/27 03:00:40;;;;;;;0.07;0.07;;;5.90;99.90;;;;;;4994113;28;20275;-50
2023/03/27 03:03:13;;;;;;;0.10;0.10;;;6.00;99.90;;;;;;4994611;28;20465;-49
2023/03/27 03:05:40;;;;;;;0.10;0.10;;;6.10;99.90;;;;;;4985747;28;20304;-50
2023/03/27 03:08:10;;;;;;;1.17;0.10;;;6.10;99.90;;;;;;4991608;28;20210;-49
2023/03/27 03:10:43;;;;;;;0.00;0.00;;;6.20;99.90;;;;;;4992201;28;20653;-50
2023/03/27 03:13:12;;;;;;;0.10;0.10;;;6.20;99.90;;;;;;4994136;28;20223;-50
2023/03/27 03:15:39;;;;;;;0.50;0.20;;;6.30;99.90;;;;;;4994566;28;20210;-51
2023/03/27 03:18:07;;;;;;;0.73;0.00;;;6.40;99.90;;;;;;4993318;28;20205;-50
2023/03/27 03:20:35;;;;;;;0.00;0.00;;;6.40;99.90;;;;;;4992854;28;20296;-50
2023/03/27 03:23:04;;;;;;;0.10;0.10;;;6.40;99.90;;;;;;4991301;28;20293;-51
2023/03/27 03:25:31;;;;;;;0.10;0.10;;;6.50;99.90;;;;;;4992898;28;20230;-51
2023/03/27 03:27:58;;;;;;;0.10;0.10;;;6.50;99.90;;;;;;4991676;28;20207;-51
2023/03/27 03:30:27;;;;;;;0.07;0.07;;;6.50;99.90;;;;;;4992857;28;20209;-51
2023/03/27 03:32:55;;;;;;;0.10;0.10;;;6.50;99.90;;;;;;4993645;28;20313;-51
2023/03/27 03:35:23;;;;;;;0.10;0.10;;;6.50;99.90;;;;;;4990871;28;20365;-49
2023/03/27 03:37:50;;;;;;;0.10;0.10;;;6.60;99.90;;;;;;4992887;28;20210;-49
2023/03/27 03:40:18;;;;;;;0.07;0.00;;;6.70;99.90;;;;;;4991702;28;20264;-50
2023/03/27 03:42:45;;;;;;;0.13;0.00;;;6.70;99.90;;;;;;4993138;28;20257;-49
2023/03/27 03:45:13;;;;;;;0.10;0.10;;;6.60;99.90;;;;;;4991984;28;20304;-51
2023/03/27 03:47:41;;;;;;;0.07;0.00;;;6.60;99.90;;;;;;4993385;28;20207;-50
2023/03/27 03:50:09;;;;;;;0.10;0.10;;;6.60;99.90;;;;;;4993167;28;20221;-50
2023/03/27 03:52:36;;;;;;;0.07;0.07;;;6.70;99.90;;;;;;4990770;28;20227;-51
2023/03/27 03:55:04;;;;;;;0.10;0.10;;;6.80;99.90;;;;;;4993092;28;20283;-50
2023/03/27 03:57:32;;;;;;;0.10;0.10;;;6.80;99.90;;;;;;4993741;28;20596;-50
2023/03/27 03:59:58;;;;;;;0.57;0.03;;;6.80;99.90;;;;;;4992003;28;20202;-52
2023/03/27 04:02:28;;;;;;;0.10;0.10;;;6.70;99.90;;;;;;4993501;28;20251;-50
2023/03/27 04:04:58;;;;;;;0.10;0.10;;;6.70;99.90;;;;;;4993347;28;20648;-50
2023/03/27 04:07:30;;;;;;;1.60;0.10;;;6.60;99.90;;;;;;4992458;28;20265;-50
2023/03/27 04:09:57;;;;;;;0.73;0.10;;;6.60;99.90;;;;;;4984214;28;20214;-49
2023/03/27 04:12:24;;;;;;;0.10;0.10;;;6.50;99.90;;;;;;4992686;28;20609;-50
2023/03/27 04:14:51;;;;;;;0.73;0.00;;;6.50;99.90;;;;;;4991861;28;20237;-50
2023/03/27 04:17:18;;;;;;;0.63;0.10;;;6.50;99.90;;;;;;4993131;28;20673;-50
2023/03/27 04:19:45;;;;;;;0.03;0.03;;;6.60;99.90;;;;;;4993218;28;20261;-49
2023/03/27 04:22:16;;;;;;;0.00;0.00;;;6.60;99.90;;;;;;4992556;28;20236;-50
2023/03/27 04:24:43;;;;;;;0.00;0.00;;;6.60;99.90;;;;;;4973796;28;20794;-50
2023/03/27 04:27:11;;;;;;;0.57;0.00;;;6.60;99.90;;;;;;4984915;28;20214;-49
2023/03/27 04:29:41;;;;;;;0.00;0.00;;;6.50;99.90;;;;;;4992108;28;20310;-50
2023/03/27 04:32:08;;;;;;;0.00;0.00;;;6.40;99.90;;;;;;4991228;28;20203;-50
2023/03/27 04:34:39;;;;;;;0.53;0.10;;;6.40;99.90;;;;;;4991434;28;20261;-49
2023/03/27 04:37:06;;;;;;;3.90;0.20;;;6.40;99.90;;;;;;4992790;28;20205;-49
2023/03/27 04:39:38;;;;;;;0.77;0.23;;;6.30;99.90;;;;;;4992954;28;20747;-49
2023/03/27 04:42:05;;;;;;;0.10;0.10;;;6.30;99.90;;;;;;4991496;28;20202;-50
2023/03/27 04:44:33;;;;;;;0.20;0.20;;;6.20;99.90;;;;;;4992487;28;20354;-50
2023/03/27 04:47:01;;;;;;;0.50;0.50;;;6.10;99.90;;;;;;4991745;28;20199;-49
2023/03/27 04:49:28;;;;;;;0.10;0.10;;;6.10;99.90;;;;;;4992316;28;20267;-50
2023/03/27 04:51:55;;;;;;;0.47;0.20;;;6.10;99.90;;;;;;4991435;28;20659;-50
2023/03/27 04:54:22;;;;;;;1.10;1.10;;;6.10;99.90;;;;;;4992287;28;20245;-49
2023/03/27 04:56:52;;;;;;;0.83;0.10;;;6.10;99.90;;;;;;4992730;28;20265;-49
2023/03/27 04:59:20;;;;;;;0.10;0.10;;;6.10;99.90;;;;;;4991742;28;20207;-50
2023/03/27 05:01:49;;;;;;;2.20;1.00;;;6.10;99.90;;;;;;4982310;28;20198;-50
2023/03/27 05:04:16;;;;;;;1.90;0.20;;;6.10;99.90;;;;;;4990392;28;20226;-49
2023/03/27 05:06:44;;;;;;;3.20;2.23;;;6.00;99.90;;;;;;4991642;28;20290;-48
2023/03/27 05:09:11;;;;;;;0.37;0.37;;;6.00;99.90;;;;;;4990836;28;20631;-48
2023/03/27 05:11:37;;;;;;;0.20;0.20;;;6.10;99.90;;;;;;4991290;28;20207;-47
2023/03/27 05:14:06;;;;;;;1.23;0.43;;;6.10;99.90;;;;;;4992167;28;20229;-48
2023/03/27 05:16:34;;;;;;;0.73;0.73;;;6.10;99.90;;;;;;4983037;28;20274;-51
2023/03/27 05:19:03;;;;;;;1.83;0.70;;;6.10;99.90;;;;;;4989934;28;20233;-50
2023/03/27 05:21:30;;;;;;;0.97;0.83;;;6.10;99.90;;;;;;4990801;28;20290;-48
2023/03/27 05:23:57;;;;;;;2.13;0.80;;;6.00;99.90;;;;;;4984864;28;20309;-49
2023/03/27 05:26:24;;;;;;;0.50;0.50;;;6.00;99.90;;;;;;4991881;28;20209;-50
2023/03/27 05:28:54;;;;;;;0.30;0.30;;;6.00;99.90;;;;;;4992010;28;20213;-50
2023/03/27 05:31:23;;;;;;;0.20;0.20;;;5.90;99.90;;;;;;4991515;28;20218;-50
2023/03/27 05:33:51;;;;;;;1.23;0.20;;;5.90;99.90;;;;;;4982312;28;20237;-50
2023/03/27 05:36:18;;;;;;;1.30;0.27;;;5.80;99.90;;;;;;4992047;28;20244;-49
2023/03/27 05:38:45;;;;;;;0.60;0.23;;;5.70;99.90;;;;;;4992088;28;20205;-48
2023/03/27 05:41:14;;;;;;;0.23;0.23;;;5.70;99.90;;;;;;4991187;28;20217;-49
2023/03/27 05:43:44;;;;;;;0.70;0.20;;;5.60;99.90;;;;;;4991546;28;20313;-49
2023/03/27 05:46:11;;;;;;;4.33;0.30;;;5.60;99.90;;;;;;4991846;28;20203;-49
2023/03/27 05:48:40;;;;;;;0.37;0.33;;;5.50;99.90;;;;;;4991988;28;20206;-49
2023/03/27 05:51:08;;;;;;;0.70;0.20;;;5.50;99.90;;;;;;4982378;28;20198;-49
2023/03/27 05:53:38;;;;;;;0.57;0.40;;;5.50;99.90;;;;;;4991383;28;20225;-49
2023/03/27 05:56:05;;;;;;;2.43;0.50;;;5.50;99.90;;;;;;4991663;28;20202;-50
2023/03/27 05:58:33;;;;;;;0.40;0.40;;;5.50;99.90;;;;;;4991518;28;20211;-48
2023/03/27 06:01:01;;;;;;;0.50;0.50;;;5.40;99.90;;;;;;4991017;28;20209;-49
2023/03/27 06:03:29;;;;;;;1.17;0.50;;;5.40;99.90;;;;;;4991452;28;20593;-49
2023/03/27 06:05:58;;;;;;;2.90;2.80;;;5.30;99.90;;;;;;4990614;28;20211;-49
2023/03/27 06:08:26;;;;;;;1.33;0.70;;;5.30;99.90;;;;;;4990978;28;20202;-48
2023/03/27 06:10:53;;;;;;;0.70;0.60;;;5.30;99.90;;;;;;4990624;28;20288;-50
2023/03/27 06:13:20;;;;;;;5.53;1.10;;;5.40;99.90;;;;;;4987298;28;20229;-51
2023/03/27 06:15:48;;;;;;;1.27;1.02;;;5.40;99.90;;;;;;4984491;28;20934;-48
2023/03/27 06:18:15;;;;;;;0.80;0.80;;;5.30;99.90;;;;;;4991123;28;20202;-48
2023/03/27 06:20:42;;;;;;;1.63;1.10;;;5.30;99.90;;;;;;4988523;28;20214;-49
2023/03/27 06:23:11;;;;;;;1.13;1.03;;;5.20;99.90;;;;;;4988682;28;20207;-49
2023/03/27 06:25:39;;;;;;;1.20;1.20;;;5.10;99.90;;;;;;4989580;28;20209;-48
2023/03/27 06:28:08;;;;;;;2.17;1.47;;;5.10;99.90;;;;;;4989718;28;20201;-48
2023/03/27 06:30:36;;;;;;;2.00;1.90;;;5.10;99.90;;;;;;4989800;28;20211;-49
2023/03/27 06:33:07;;;;;;;2.33;2.23;;;5.20;99.90;;;;;;4988480;28;20551;-49
2023/03/27 06:35:35;;;;;;;2.23;2.13;;;5.30;99.90;;;;;;4990787;28;20967;-50
2023/03/27 06:38:03;;;;;;;3.67;1.47;;;5.30;99.90;;;;;;4989236;28;20768;-50
2023/03/27 06:40:34;;;;;;;10.30;9.43;;;5.20;99.90;;;;;;4989679;28;20205;-50
2023/03/27 06:43:03;;;;;;;1.67;1.57;;;5.20;99.90;;;;;;4989063;28;20207;-48
2023/03/27 06:45:33;;;;;;;3.50;1.47;;;5.20;99.90;;;;;;4990435;28;20206;-48
2023/03/27 06:48:05;;;;;;;2.13;1.97;;;5.30;99.90;;;;;;4990545;28;20210;-49
2023/03/27 06:50:34;;;;;;;1.70;1.60;;;5.30;99.90;;;;;;4989702;28;20257;-49
2023/03/27 06:53:05;;;;;;;1.60;1.50;;;5.30;99.90;;;;;;4990094;28;20536;-48
2023/03/27 06:55:34;;;;;;;3.90;1.80;;;5.40;99.90;;;;;;4990331;28;20277;-48
2023/03/27 06:58:03;;;;;;;2.83;2.40;;;5.40;99.90;;;;;;4971263;28;20672;-48
2023/03/27 07:00:34;;;;;;;1.83;1.30;;;5.50;99.90;;;;;;4970638;28;20214;-48
2023/03/27 07:03:07;;;;;;;1.60;1.07;;;5.50;99.90;;;;;;4971518;28;20268;-49
2023/03/27 07:05:36;;;;;;;3.53;1.43;;;5.50;99.90;;;;;;4976137;28;20212;-48
2023/03/27 07:08:06;;;;;;;4.20;1.57;;;5.40;99.90;;;;;;4984622;28;20259;-49
2023/03/27 07:10:35;;;;;;;1.27;1.17;;;5.20;99.90;;;;;;4987393;28;20207;-50
2023/03/27 07:13:03;;;;;;;4.27;1.07;;;5.10;99.90;;;;;;4990233;28;20651;-48
2023/03/27 07:15:30;;;;;;;5.60;2.20;;;5.20;99.90;;;;;;4990223;28;20279;-49
2023/03/27 07:17:59;;;;;;;2.93;1.10;;;5.20;99.90;;;;;;4989546;28;20630;-50
2023/03/27 07:20:30;;;;;;;1.50;1.20;;;5.10;99.90;;;;;;4984011;28;20201;-48
2023/03/27 07:22:58;;;;;;;1.60;1.07;;;5.00;99.90;;;;;;4994644;28;20680;-49
2023/03/27 07:25:25;;;;;;;1.43;1.00;;;5.10;99.90;;;;;;4990559;28;20264;-48
2023/03/27 07:27:58;;;;;;;2.87;1.43;;;5.00;99.90;;;;;;4990771;28;20761;-49
2023/03/27 07:30:25;;;;;;;5.17;1.80;;;4.90;99.90;;;;;;4990226;28;20588;-49
2023/03/27 07:32:52;;;;;;;1.70;1.60;;;5.00;99.90;;;;;;4990713;28;20270;-48
2023/03/27 07:35:19;;;;;;;3.43;2.27;;;5.00;99.90;;;;;;4989714;28;20237;-48
2023/03/27 07:37:46;;;;;;;5.20;1.30;;;5.00;99.90;;;;;;4990407;28;20198;-50
2023/03/27 07:40:13;;;;;;;3.10;1.77;;;4.90;99.90;;;;;;4990159;28;20268;-51
2023/03/27 07:42:44;;;;;;;3.03;1.23;;;5.00;99.90;;;;;;4992794;28;20297;-48
2023/03/27 07:45:13;;;;;;;5.27;2.03;;;4.90;99.90;;;;;;4994131;28;20226;-49
2023/03/27 07:47:42;;;;;;;8.80;2.70;;;4.80;99.90;;;;;;4993992;28;20204;-49
2023/03/27 07:50:10;;;;;;;3.30;1.40;;;4.70;99.90;;;;;;4993906;28;20301;-48
2023/03/27 07:52:39;;;;;;;5.17;1.87;;;4.80;99.90;;;;;;4990777;28;20684;-48
2023/03/27 07:55:07;;;;;;;3.90;2.80;;;4.70;99.90;;;;;;4986436;28;20226;-49
2023/03/27 07:57:39;;;;;;;4.23;1.67;;;4.70;99.90;;;;;;4992451;28;20196;-49
2023/03/27 08:00:10;;;;;;;3.53;1.00;;;4.70;99.90;;;;;;4986420;28;20206;-49
2023/03/27 08:02:39;;;;;;;4.40;1.50;;;4.80;99.90;;;;;;4993072;28;20206;-49
2023/03/27 08:05:08;;;;;;;7.73;2.60;;;4.70;99.90;;;;;;4993214;28;20232;-50
2023/03/27 08:07:35;;;;;;;3.73;2.03;;;4.70;99.90;;;;;;4993263;28;20287;-48
2023/03/27 08:10:03;;;;;;;8.70;5.90;;;4.70;99.90;;;;;;4984206;28;20641;-49
2023/03/27 08:12:32;;;;;;;4.50;2.73;;;4.80;99.90;;;;;;4992305;28;20580;-51
2023/03/27 08:14:59;;;;;;;1.57;1.47;;;4.90;99.90;;;;;;4992863;28;20671;-49
2023/03/27 08:17:27;;;;;;;4.33;1.40;;;5.00;99.90;;;;;;4993122;28;20212;-49
2023/03/27 08:19:55;;;;;;;5.67;1.77;;;5.00;99.90;;;;;;4992564;28;20851;-49
2023/03/27 08:22:23;;;;;;;5.17;1.50;;;5.00;99.90;;;;;;4988198;28;20279;-49
2023/03/27 08:24:50;;;;;;;4.17;3.87;;;5.00;99.90;;;;;;4993200;28;20299;-49
2023/03/27 08:27:18;;;;;;;2.43;2.23;;;4.80;99.90;;;;;;4993309;28;20214;-49
2023/03/27 08:29:45;;;;;;;3.50;1.10;;;4.90;99.90;;;;;;4993161;28;20202;-49
2023/03/27 08:32:12;;;;;;;3.27;1.47;;;4.90;99.90;;;;;;4992479;28;20283;-49
2023/03/27 08:34:41;;;;;;;2.30;1.00;;;5.00;99.90;;;;;;4990984;28;20696;-48
2023/03/27 08:37:09;;;;;;;3.80;1.00;;;4.90;99.90;;;;;;4986326;28;20202;-49
2023/03/27 08:39:37;;;;;;;2.10;1.40;;;5.00;99.90;;;;;;4992893;28;20211;-49
2023/03/27 08:42:07;;;;;;;6.73;1.60;;;5.00;99.90;;;;;;4984259;28;20698;-49
2023/03/27 08:44:35;;;;;;;5.67;1.20;;;4.90;99.90;;;;;;4989269;28;20252;-49
2023/03/27 08:47:06;;;;;;;3.47;1.27;;;4.90;99.90;;;;;;4992743;28;20213;-50
2023/03/27 08:49:38;;;;;;;8.43;1.70;;;5.00;99.90;;;;;;4991177;28;20269;-49
2023/03/27 08:52:08;;;;;;;3.13;0.90;;;5.00;99.90;;;;;;4985675;28;20215;-49
2023/03/27 08:54:38;;;;;;;5.07;2.40;;;5.00;99.90;;;;;;5013681;23;20288;-47
2023/03/27 08:57:17;;;;;;;3.70;0.93;;;5.00;99.90;;;;;;4992801;28;20616;-47
2023/03/27 08:59:44;;;;;;;5.33;0.90;;;5.00;99.90;;;;;;4998644;28;20212;-47
2023/03/27 09:02:22;;;;;;;3.20;0.93;;;4.90;99.90;;;;;;4994923;28;20212;-46
2023/03/27 09:04:53;;;;;;;3.43;1.23;;;4.80;99.90;;;;;;5013220;28;20247;-46
2023/03/27 09:07:28;;;;;;;3.33;1.03;;;4.80;99.90;;;;;;4992275;28;20256;-47
2023/03/27 09:10:03;;;;;;;5.57;1.63;;;4.60;99.90;;;;;;4993606;28;20201;-47
2023/03/27 09:12:47;;;;;;;1.60;1.20;;;4.70;99.90;;;;;;4993070;28;20227;-47
2023/03/27 09:15:17;;;;;;;3.37;1.17;;;4.70;99.90;;;;;;4993638;28;20222;-47
2023/03/27 09:17:49;;;;;;;4.13;1.10;;;4.60;99.90;;;;;;4993554;28;20209;-47
2023/03/27 09:20:20;;;;;;;3.33;1.30;;;4.60;99.90;;;;;;4993483;28;20210;-47
2023/03/27 09:22:53;;;;;;;2.00;0.70;;;4.30;99.90;;;;;;4988782;28;20686;-46
2023/03/27 09:25:26;;;;;;;4.17;1.10;;;4.20;99.90;;;;;;4988541;28;20627;-48
2023/03/27 09:27:53;;;;;;;5.17;1.40;;;4.20;99.90;;;;;;4993582;28;20260;-46
2023/03/27 09:30:24;;;;;;;2.23;1.07;;;4.40;99.90;;;;;;4993407;28;20227;-47
2023/03/27 09:32:56;;;;;;;5.53;2.10;;;4.50;99.90;;;;;;4993031;28;20259;-46
2023/03/27 09:35:23;;;;;;;1.90;0.70;;;4.50;99.90;;;;;;4993035;28;20282;-47
2023/03/27 09:37:55;;;;;;;5.40;1.10;;;4.60;99.90;;;;;;4993370;28;20565;-48
2023/03/27 09:40:29;;;;;;;2.20;1.23;;;4.60;99.90;;;;;;4985775;28;20244;-48
2023/03/27 09:43:04;;;;;;;6.20;1.10;;;4.60;99.90;;;;;;4992467;28;20212;-46
2023/03/27 09:45:31;;;;;;;3.07;1.20;;;4.70;99.90;;;;;;4993093;28;20327;-48
2023/03/27 09:48:02;;;;;;;9.50;1.67;;;4.80;99.90;;;;;;4993306;28;20208;-47
2023/03/27 09:50:33;;;;;;;7.20;1.77;;;4.90;99.90;;;;;;4992901;28;20267;-49
2023/03/27 09:53:09;;;;;;;3.43;1.20;;;4.80;99.90;;;;;;5011823;28;20200;-49
2023/03/27 09:55:49;;;;;;;2.10;0.63;;;4.80;99.90;;;;;;5011526;28;20750;-47
2023/03/27 09:58:24;;;;;;;2.70;0.90;;;4.70;99.90;;;;;;4991693;28;20218;-46
2023/03/27 10:01:12;;;;;;;3.70;0.50;;;4.70;99.90;;;;;;4993149;28;20200;-48
2023/03/27 10:03:41;;;;;;;3.20;1.07;;;4.60;99.90;;;;;;4992097;28;20218;-48
2023/03/27 10:06:11;;;;;;;6.03;1.33;;;4.70;99.90;;;;;;4992699;28;20218;-48
2023/03/27 10:08:40;;;;;;;5.13;0.83;;;4.70;99.90;;;;;;4990346;28;20280;-49
2023/03/27 10:11:16;;;;;;;3.73;0.90;;;4.90;99.90;;;;;;4992082;28;20576;-48
2023/03/27 10:13:48;;;;;;;15.53;5.17;;;5.00;99.90;;;;;;4988726;28;20223;-47
2023/03/27 10:16:16;;;;;;;11.40;5.37;;;5.10;99.90;;;;;;4986763;28;20279;-47
2023/03/27 10:18:46;;;;;;;36.13;16.30;;;5.10;99.90;;;;;;4990287;28;20207;-47
2023/03/27 10:21:24;;;;;;;25.57;13.30;;;5.30;99.90;;;;;;4991710;28;20203;-48
2023/03/27 10:23:51;;;;;;;7.77;2.03;;;5.60;99.90;;;;;;4992329;28;20221;-47
2023/03/27 10:26:25;;;;;;;3.20;0.90;;;5.70;99.90;;;;;;4992417;28;20201;-47
2023/03/27 10:28:53;;;;;;;6.13;1.27;;;5.90;99.90;;;;;;4989555;28;20209;-49
2023/03/27 10:31:30;;;;;;;8.13;1.10;;;6.10;99.90;;;;;;4991559;28;20580;-48
2023/03/27 10:33:58;;;;;;;3.43;0.90;;;6.40;99.90;;;;;;4992404;28;20292;-46
2023/03/27 10:36:26;;;;;;;3.90;0.97;;;6.30;99.90;;;;;;4991114;28;20281;-47
2023/03/27 10:38:57;;;;;;;3.27;0.83;;;6.40;99.90;;;;;;4991333;28;20206;-47
2023/03/27 10:41:27;;;;;;;3.63;2.00;;;6.50;99.90;;;;;;4991684;28;20216;-47
2023/03/27 10:43:56;;;;;;;2.00;0.70;;;6.60;99.90;;;;;;4992120;28;20300;-49
2023/03/27 10:46:25;;;;;;;9.90;0.77;;;6.70;99.90;;;;;;4990395;28;20275;-45
2023/03/27 10:49:01;;;;;;;8.43;1.67;;;6.70;99.90;;;;;;4991156;28;20214;-46
2023/03/27 10:51:39;;;;;;;3.17;1.10;;;6.50;99.90;;;;;;4991620;28;20199;-47
2023/03/27 10:54:15;;;;;;;6.33;1.73;;;6.60;99.90;;;;;;4991999;28;20722;-47
2023/03/27 10:56:51;;;;;;;4.77;1.87;;;6.50;99.90;;;;;;4992172;28;20256;-47
2023/03/27 10:59:22;;;;;;;4.57;1.60;;;6.70;99.90;;;;;;4990190;28;20213;-48
2023/03/27 11:01:52;;;;;;;4.93;1.20;;;6.70;99.90;;;;;;4990847;28;20205;-46
2023/03/27 11:04:23;;;;;;;2.80;1.23;;;7.00;99.90;;;;;;4990223;28;20241;-47
2023/03/27 11:06:56;;;;;;;3.60;2.27;;;7.20;99.90;;;;;;4991065;28;20666;-47
2023/03/27 11:09:29;;;;;;;7.03;1.50;;;7.00;99.90;;;;;;4990145;28;20206;-47
2023/03/27 11:12:03;;;;;;;6.20;1.17;;;6.90;99.90;;;;;;4988980;28;20204;-46
2023/03/27 11:14:38;;;;;;;6.67;0.80;;;6.80;99.90;;;;;;4988791;28;20305;-48
2023/03/27 11:17:07;;;;;;;8.23;1.20;;;6.90;99.90;;;;;;4976357;28;20209;-47
2023/03/27 11:19:41;;;;;;;1.40;0.80;;;7.10;99.90;;;;;;4996207;28;20237;-47
2023/03/27 11:22:13;;;;;;;3.70;1.00;;;7.30;99.90;;;;;;4994675;28;20200;-48
2023/03/27 11:24:46;;;;;;;9.07;1.37;;;7.50;99.90;;;;;;4995249;28;20714;-46
2023/03/27 11:27:20;;;;;;;1.73;0.93;;;7.60;99.90;;;;;;4994703;28;20206;-47
2023/03/27 11:29:55;;;;;;;4.90;0.73;;;7.80;99.90;;;;;;4993896;28;20280;-48
2023/03/27 11:32:33;;;;;;;4.50;1.00;;;7.80;99.90;;;;;;4994901;28;20253;-46
2023/03/27 11:35:07;;;;;;;3.20;1.43;;;7.90;99.90;;;;;;4995443;28;20226;-48
2023/03/27 11:37:42;;;;;;;6.17;1.30;;;7.80;99.90;;;;;;4993284;28;20204;-47
2023/03/27 11:40:17;;;;;;;8.80;1.47;;;7.80;99.90;;;;;;4994210;28;20252;-47
2023/03/27 11:42:46;;;;;;;5.37;0.97;;;8.00;99.90;;;;;;4996437;28;20236;-47
2023/03/27 11:45:15;;;;;;;3.37;0.83;;;8.20;99.90;;;;;;4998628;28;20642;-48
2023/03/27 11:48:05;;;;;;;2.63;1.20;;;8.10;99.90;;;;;;5023206;28;20244;-46
2023/03/27 11:50:43;;;;;;;7.03;1.37;;;8.00;99.90;;;;;;5025725;28;20652;-46
2023/03/27 11:53:27;;;;;;;3.83;0.80;;;8.00;99.90;;;;;;5020034;28;20664;-45
2023/03/27 11:56:15;;;;;;;4.67;1.10;;;7.60;99.90;;;;;;4994332;28;20221;-46
2023/03/27 11:58:54;;;;;;;2.33;0.90;;;7.60;99.90;;;;;;4992581;28;20254;-48
2023/03/27 12:01:27;;;;;;;7.10;1.00;;;7.60;99.90;;;;;;4994597;28;20209;-47
2023/03/27 12:04:18;;;;;;;5.23;1.63;;;7.20;99.90;;;;;;4992109;28;20289;-47
2023/03/27 12:06:55;;;;;;;4.20;1.10;;;7.40;99.90;;;;;;4975385;28;20202;-46
2023/03/27 12:09:38;;;;;;;9.00;1.60;;;7.50;99.90;;;;;;4975241;28;20214;-47
2023/03/27 12:12:19;;;;;;;6.83;0.90;;;7.50;99.90;;;;;;4974871;28;20257;-47
2023/03/27 12:14:58;;;;;;;3.77;0.80;;;7.60;99.90;;;;;;4984540;28;20221;-46
2023/03/27 12:17:44;;;;;;;4.07;1.17;;;7.40;99.90;;;;;;4994661;28;20260;-46
2023/03/27 12:20:36;;;;;;;6.20;1.10;;;7.30;99.90;;;;;;4994748;28;20269;-46
2023/03/27 12:23:21;;;;;;;7.80;1.10;;;7.40;99.90;;;;;;5000180;28;20241;-48
2023/03/27 12:26:07;;;;;;;5.07;1.00;;;7.20;99.90;;;;;;5014215;28;20202;-50
2023/03/27 12:28:48;;;;;;;3.60;1.20;;;7.30;99.90;;;;;;5009820;28;20209;-47
2023/03/27 12:31:32;;;;;;;1.03;0.80;;;7.30;99.90;;;;;;4991341;28;20262;-47
2023/03/27 12:34:01;;;;;;;3.70;0.70;;;7.50;99.90;;;;;;4975830;28;20229;-47
2023/03/27 12:36:33;;;;;;;6.10;0.90;;;7.50;99.90;;;;;;4990454;28;20222;-49
2023/03/27 12:39:00;;;;;;;2.33;0.80;;;7.40;99.90;;;;;;4993879;28;20263;-47
2023/03/27 12:41:32;;;;;;;6.87;1.97;;;7.60;99.90;;;;;;4993710;28;20205;-46
2023/03/27 12:44:00;;;;;;;7.37;0.87;;;7.90;99.90;;;;;;4994352;28;20228;-48
2023/03/27 12:46:36;;;;;;;8.10;0.90;;;7.90;99.90;;;;;;4994175;28;20201;-47
2023/03/27 12:49:19;;;;;;;3.03;1.00;;;8.20;99.90;;;;;;5000714;28;20210;-47
2023/03/27 12:52:03;;;;;;;2.00;0.60;;;8.40;99.90;;;;;;4988769;28;20691;-47
2023/03/27 12:54:31;;;;;;;4.80;1.00;;;8.70;99.90;;;;;;4993689;28;20235;-45
2023/03/27 12:57:05;;;;;;;9.83;1.40;;;8.60;99.90;;;;;;4993392;28;20252;-47
2023/03/27 12:59:35;;;;;;;4.63;1.17;;;8.60;99.90;;;;;;4993696;28;20207;-46
2023/03/27 13:02:32;;;;;;;6.23;0.90;;;8.60;99.90;;;;;;4985606;28;20197;-48
2023/03/27 13:05:42;;;;;;;2.43;0.60;;;8.70;99.90;;;;;;4992202;28;20632;-47
2023/03/27 13:08:36;;;;;;;2.60;0.50;;;8.70;99.90;;;;;;4988445;28;20274;-47
2023/03/27 13:11:16;;;;;;;13.10;2.07;;;8.40;99.90;;;;;;4987047;28;20209;-47
2023/03/27 13:14:12;;;;;;;7.17;2.50;;;8.00;99.90;;;;;;4991947;28;20323;-47
2023/03/27 13:16:50;;;;;;;6.83;2.80;;;7.80;99.90;;;;;;4993685;28;20225;-47
2023/03/27 13:19:30;;;;;;;7.07;2.00;;;7.80;99.90;;;;;;4992512;28;20221;-48
2023/03/27 13:22:12;;;;;;;2.30;1.30;;;7.80;99.90;;;;;;4983721;28;20259;-48